Time,TemperatureF,DewpointF,PressureIn,WindDirection,WindDirectionDegrees,WindSpeedMPH,WindSpeedGustMPH,Humidity,HourlyPrecipIn,Conditions,Clouds,dailyrainin,SoftwareType,DateUTC
2013-03-05 00:00:00,29.1,22.2,29.92,NW,304,1.0,12.0,75,0.00,,---,0.00,VWS V14.01,2013-03-05 05:00:00,
2013-03-05 00:03:00,29.1,22.2,29.92,NW,315,6.0,6.0,75,0.00,,---,0.00,VWS V14.01,2013-03-05 05:03:00,
2013-03-05 00:08:00,29.1,22.2,29.92,West,281,3.0,9.0,75,0.00,,---,0.00,VWS V14.01,2013-03-05 05:08:00,
2013-03-05 00:13:00,29.0,22.1,29.92,NNE,17,0.0,9.0,75,0.00,,---,0.00,VWS V14.01,2013-03-05 05:13:00,
2013-03-05 00:18:00,29.0,22.1,29.92,NW,311,4.0,9.0,75,0.00,,---,0.00,VWS V14.01,2013-03-05 05:18:00,
2013-03-05 00:23:00,29.0,22.4,29.92,NW,310,3.0,9.0,76,0.00,,---,0.00,VWS V14.01,2013-03-05 05:23:00,
2013-03-05 00:29:00,28.9,22.3,29.92,NNW,329,4.0,9.0,76,0.00,,---,0.00,VWS V14.01,2013-03-05 05:29:00,
2013-03-05 00:34:00,28.9,22.3,29.93,NNW,327,3.0,6.0,76,0.00,,---,0.00,VWS V14.01,2013-03-05 05:34:00,
2013-03-05 00:39:00,28.9,22.3,29.93,NNW,327,5.0,9.0,76,0.00,,---,0.00,VWS V14.01,2013-03-05 05:39:00,
2013-03-05 00:44:00,28.9,22.3,29.93,NW,312,3.0,9.0,76,0.00,,---,0.00,VWS V14.01,2013-03-05 05:44:00,
2013-03-05 00:49:00,28.9,22.3,29.93,NW,309,2.0,9.0,76,0.00,,---,0.00,VWS V14.01,2013-03-05 05:49:00,
2013-03-05 00:54:00,28.8,22.2,29.93,WNW,286,3.0,9.0,76,0.00,,---,0.00,VWS V14.01,2013-03-05 05:54:00,
2013-03-05 00:59:00,28.8,22.5,29.93,NNW,333,6.0,9.0,77,0.00,,---,0.00,VWS V14.01,2013-03-05 05:59:00,
2013-03-05 01:04:00,28.8,22.2,29.93,WNW,295,3.0,6.0,76,0.00,,---,0.00,VWS V14.01,2013-03-05 06:04:00,
2013-03-05 01:09:00,28.8,22.2,29.93,NW,319,3.0,7.0,76,0.00,,---,0.00,VWS V14.01,2013-03-05 06:09:00,
2013-03-05 01:15:00,28.8,22.2,29.93,NW,315,3.0,11.0,76,0.00,,---,0.00,VWS V14.01,2013-03-05 06:15:00,
2013-03-05 01:20:00,28.8,22.2,29.93,NNW,342,4.0,11.0,76,0.00,,---,0.00,VWS V14.01,2013-03-05 06:20:00,
2013-03-05 01:25:00,28.8,22.2,29.93,NW,318,5.0,11.0,76,0.00,,---,0.00,VWS V14.01,2013-03-05 06:25:00,
2013-03-05 01:30:00,28.8,22.2,29.93,North,355,1.0,11.0,76,0.00,,---,0.00,VWS V14.01,2013-03-05 06:30:00,
2013-03-05 01:35:00,28.8,22.2,29.93,West,269,1.0,5.0,76,0.00,,---,0.00,VWS V14.01,2013-03-05 06:35:00,
2013-03-05 01:40:00,28.7,22.1,29.93,WNW,302,3.0,8.0,76,0.00,,---,0.00,VWS V14.01,2013-03-05 06:40:00,
2013-03-05 01:45:00,28.7,22.1,29.93,NW,319,3.0,8.0,76,0.00,,---,0.00,VWS V14.01,2013-03-05 06:45:00,
2013-03-05 01:50:00,28.7,22.4,29.93,NW,325,1.0,8.0,77,0.00,,---,0.00,VWS V14.01,2013-03-05 06:50:00,
2013-03-05 01:55:00,28.7,22.1,29.93,NW,315,1.0,9.0,76,0.00,,---,0.00,VWS V14.01,2013-03-05 06:55:00,
2013-03-05 02:01:00,28.7,22.4,29.94,NW,309,1.0,2.0,77,0.00,,---,0.00,VWS V14.01,2013-03-05 07:01:00,
2013-03-05 02:06:00,28.7,22.1,29.93,NW,317,5.0,5.0,76,0.00,,---,0.00,VWS V14.01,2013-03-05 07:06:00,
2013-03-05 02:11:00,28.7,22.4,29.93,NW,321,1.0,7.0,77,0.00,,---,0.00,VWS V14.01,2013-03-05 07:11:00,
2013-03-05 02:16:00,28.7,22.4,29.93,NW,306,2.0,7.0,77,0.00,,---,0.00,VWS V14.01,2013-03-05 07:16:00,
2013-03-05 02:21:00,28.7,22.4,29.92,WNW,291,5.0,10.0,77,0.00,,---,0.00,VWS V14.01,2013-03-05 07:21:00,
2013-03-05 02:26:00,28.6,22.3,29.92,NW,305,3.0,10.0,77,0.00,,---,0.00,VWS V14.01,2013-03-05 07:26:00,
2013-03-05 02:30:00,28.1,22.1,29.93,NNE,18,4.0,14.0,78,0.00,,---,0.00,VWS V14.01,2013-03-05 07:30:00,
2013-03-05 02:31:00,28.5,22.2,29.92,NW,317,4.0,7.0,77,0.00,,---,0.00,VWS V14.01,2013-03-05 07:31:00,
2013-03-05 02:36:00,28.5,22.2,29.92,WNW,290,3.0,8.0,77,0.00,,---,0.00,VWS V14.01,2013-03-05 07:36:00,
2013-03-05 02:42:00,28.4,22.1,29.92,WNW,295,4.0,8.0,77,0.00,,---,0.00,VWS V14.01,2013-03-05 07:42:00,
2013-03-05 02:47:00,28.4,22.4,29.92,NNW,342,2.0,9.0,78,0.00,,---,0.00,VWS V14.01,2013-03-05 07:47:00,
2013-03-05 02:52:00,28.3,22.0,29.92,NW,310,3.0,9.0,77,0.00,,---,0.00,VWS V14.01,2013-03-05 07:52:00,
2013-03-05 02:57:00,28.3,22.3,29.92,WNW,300,4.0,13.0,78,0.00,,---,0.00,VWS V14.01,2013-03-05 07:57:00,
2013-03-05 03:00:00,28.0,22.0,29.93,NW,310,9.0,12.0,78,0.00,,---,0.00,VWS V14.01,2013-03-05 08:00:00,
2013-03-05 03:02:00,28.4,22.4,29.93,WNW,291,0.0,5.0,78,0.00,,---,0.00,VWS V14.01,2013-03-05 08:02:00,
2013-03-05 03:07:00,28.4,22.1,29.92,NNW,329,0.0,14.0,77,0.00,,---,0.00,VWS V14.01,2013-03-05 08:07:00,
2013-03-05 03:12:00,28.4,22.1,29.92,WNW,297,2.0,14.0,77,0.00,,---,0.00,VWS V14.01,2013-03-05 08:12:00,
2013-03-05 03:17:00,28.3,22.3,29.92,WSW,255,7.0,14.0,78,0.00,,---,0.00,VWS V14.01,2013-03-05 08:17:00,
2013-03-05 03:22:00,28.3,22.3,29.92,NNW,341,1.0,14.0,78,0.00,,---,0.00,VWS V14.01,2013-03-05 08:22:00,
2013-03-05 03:27:00,28.1,22.1,29.92,NW,314,6.0,14.0,78,0.00,,---,0.00,VWS V14.01,2013-03-05 08:27:00,
2013-03-05 03:32:00,28.1,22.1,29.93,NNW,331,2.0,7.0,78,0.00,,---,0.00,VWS V14.01,2013-03-05 08:32:00,
2013-03-05 03:37:00,28.1,22.1,29.93,NW,310,0.0,7.0,78,0.00,,---,0.00,VWS V14.01,2013-03-05 08:37:00,
2013-03-05 03:42:00,28.1,22.1,29.93,North,5,4.0,11.0,78,0.00,,---,0.00,VWS V14.01,2013-03-05 08:42:00,
2013-03-05 03:47:00,28.1,22.1,29.93,NW,317,5.0,11.0,78,0.00,,---,0.00,VWS V14.01,2013-03-05 08:47:00,
2013-03-05 03:52:00,28.0,22.0,29.93,West,273,4.0,12.0,78,0.00,,---,0.00,VWS V14.01,2013-03-05 08:52:00,
2013-03-05 03:58:00,28.0,22.0,29.93,NW,325,2.0,12.0,78,0.00,,---,0.00,VWS V14.01,2013-03-05 08:58:00,
2013-03-05 04:00:00,27.6,22.0,29.96,WNW,300,2.0,11.0,79,0.00,,---,0.00,VWS V14.01,2013-03-05 09:00:00,
2013-03-05 04:03:00,28.0,22.0,29.94,WNW,303,2.0,10.0,78,0.00,,---,0.00,VWS V14.01,2013-03-05 09:03:00,
2013-03-05 04:08:00,28.0,22.0,29.94,WNW,290,3.0,10.0,78,0.00,,---,0.00,VWS V14.01,2013-03-05 09:08:00,
2013-03-05 04:13:00,27.9,21.9,29.94,North,5,4.0,10.0,78,0.00,,---,0.00,VWS V14.01,2013-03-05 09:13:00,
2013-03-05 04:18:00,27.9,21.9,29.94,WNW,294,2.0,10.0,78,0.00,,---,0.00,VWS V14.01,2013-03-05 09:18:00,
2013-03-05 04:23:00,27.8,21.9,29.94,NW,323,4.0,10.0,78,0.00,,---,0.00,VWS V14.01,2013-03-05 09:23:00,
2013-03-05 04:28:00,27.9,21.9,29.94,NNW,333,4.0,11.0,78,0.00,,---,0.00,VWS V14.01,2013-03-05 09:28:00,
2013-03-05 04:30:00,27.5,21.9,29.96,NW,316,4.0,8.0,79,0.00,,---,0.00,VWS V14.01,2013-03-05 09:30:00,
2013-03-05 04:33:00,27.9,21.9,29.95,NW,308,3.0,11.0,78,0.00,,---,0.00,VWS V14.01,2013-03-05 09:33:00,
2013-03-05 04:38:00,27.8,22.1,29.95,NW,310,3.0,11.0,79,0.00,,---,0.00,VWS V14.01,2013-03-05 09:38:00,
2013-03-05 04:43:00,27.7,22.0,29.95,NNW,334,2.0,11.0,79,0.00,,---,0.00,VWS V14.01,2013-03-05 09:43:00,
2013-03-05 04:48:00,27.6,22.0,29.95,NW,325,2.0,11.0,79,0.00,,---,0.00,VWS V14.01,2013-03-05 09:48:00,
2013-03-05 04:53:00,27.6,22.0,29.95,WNW,297,1.0,11.0,79,0.00,,---,0.00,VWS V14.01,2013-03-05 09:53:00,
2013-03-05 04:58:00,27.6,22.0,29.96,NNW,331,4.0,11.0,79,0.00,,---,0.00,VWS V14.01,2013-03-05 09:58:00,
2013-03-05 05:00:00,27.4,21.8,29.97,NW,317,5.0,9.0,79,0.00,,---,0.00,VWS V14.01,2013-03-05 10:00:00,
2013-03-05 05:03:00,27.6,22.0,29.96,NW,315,4.0,5.0,79,0.00,,---,0.00,VWS V14.01,2013-03-05 10:03:00,
2013-03-05 05:08:00,27.6,22.0,29.96,WNW,303,3.0,6.0,79,0.00,,---,0.00,VWS V14.01,2013-03-05 10:08:00,
2013-03-05 05:13:00,27.4,22.0,29.96,WNW,292,4.0,6.0,80,0.00,,---,0.00,VWS V14.01,2013-03-05 10:13:00,
2013-03-05 05:18:00,27.5,21.9,29.96,WNW,286,3.0,7.0,79,0.00,,---,0.00,VWS V14.01,2013-03-05 10:18:00,
2013-03-05 05:24:00,27.6,22.0,29.96,NW,321,1.0,8.0,79,0.00,,---,0.00,VWS V14.01,2013-03-05 10:24:00,
2013-03-05 05:29:00,27.5,21.9,29.96,NW,316,4.0,8.0,79,0.00,,---,0.00,VWS V14.01,2013-03-05 10:29:00,
2013-03-05 05:30:00,27.3,22.0,29.98,NNW,337,0.0,6.0,80,0.00,,---,0.00,VWS V14.01,2013-03-05 10:30:00,
2013-03-05 05:34:00,27.5,22.1,29.96,NW,325,4.0,7.0,80,0.00,,---,0.00,VWS V14.01,2013-03-05 10:34:00,
2013-03-05 05:39:00,27.5,21.9,29.96,NNW,340,5.0,7.0,79,0.00,,---,0.00,VWS V14.01,2013-03-05 10:39:00,
2013-03-05 05:44:00,27.4,22.0,29.97,NNW,331,7.0,7.0,80,0.00,,---,0.00,VWS V14.01,2013-03-05 10:44:00,
2013-03-05 05:49:00,27.5,21.9,29.97,NNW,333,5.0,7.0,79,0.00,,---,0.00,VWS V14.01,2013-03-05 10:49:00,
2013-03-05 05:54:00,27.5,21.9,29.97,NW,322,3.0,7.0,79,0.00,,---,0.00,VWS V14.01,2013-03-05 10:54:00,
2013-03-05 05:59:00,27.4,21.8,29.97,NW,312,4.0,9.0,79,0.00,,---,0.00,VWS V14.01,2013-03-05 10:59:00,
2013-03-05 06:04:00,27.4,21.8,29.97,NW,326,3.0,6.0,79,0.00,,---,0.00,VWS V14.01,2013-03-05 11:04:00,
2013-03-05 06:09:00,27.4,21.8,29.97,NW,314,2.0,6.0,79,0.00,,---,0.00,VWS V14.01,2013-03-05 11:09:00,
2013-03-05 06:14:00,27.4,21.8,29.98,NW,323,3.0,6.0,79,0.00,,---,0.00,VWS V14.01,2013-03-05 11:14:00,
2013-03-05 06:19:00,27.4,21.8,29.98,NW,322,0.0,6.0,79,0.00,,---,0.00,VWS V14.01,2013-03-05 11:19:00,
2013-03-05 06:24:00,27.2,21.9,29.98,North,355,5.0,6.0,80,0.00,,---,0.00,VWS V14.01,2013-03-05 11:24:00,
2013-03-05 06:29:00,27.3,22.0,29.98,North,360,5.0,6.0,80,0.00,,---,0.00,VWS V14.01,2013-03-05 11:29:00,
2013-03-05 06:34:00,27.1,21.8,29.97,WNW,296,2.0,6.0,80,0.00,,---,0.00,VWS V14.01,2013-03-05 11:34:00,
2013-03-05 06:40:00,27.2,21.9,29.98,WNW,298,1.0,6.0,80,0.00,,---,0.00,VWS V14.01,2013-03-05 11:40:00,
2013-03-05 06:45:00,27.2,21.9,29.98,NNW,333,3.0,6.0,80,0.00,,---,0.00,VWS V14.01,2013-03-05 11:45:00,
2013-03-05 06:50:00,27.3,22.0,29.98,WNW,296,5.0,6.0,80,0.00,,---,0.00,VWS V14.01,2013-03-05 11:50:00,
2013-03-05 06:55:00,27.4,22.0,29.98,NW,305,3.0,7.0,80,0.00,,---,0.00,VWS V14.01,2013-03-05 11:55:00,
2013-03-05 07:00:00,27.4,22.0,29.98,NW,304,4.0,7.0,80,0.00,,---,0.00,VWS V14.01,2013-03-05 12:00:00,
2013-03-05 07:05:00,27.4,22.0,29.98,WNW,299,2.0,7.0,80,0.00,,---,0.00,VWS V14.01,2013-03-05 12:05:00,
2013-03-05 07:10:00,27.5,22.1,29.98,NW,311,2.0,7.0,80,0.00,,---,0.00,VWS V14.01,2013-03-05 12:10:00,
2013-03-05 07:15:00,27.6,22.2,29.99,NNW,335,2.0,7.0,80,0.00,,---,0.00,VWS V14.01,2013-03-05 12:15:00,
2013-03-05 07:20:00,27.6,22.2,29.99,NW,308,3.0,8.0,80,0.00,,---,0.00,VWS V14.01,2013-03-05 12:20:00,
2013-03-05 07:25:00,27.8,22.4,29.99,NW,311,4.0,8.0,80,0.00,,---,0.00,VWS V14.01,2013-03-05 12:25:00,
2013-03-05 07:30:00,27.9,22.2,29.99,NNW,332,3.0,4.0,79,0.00,,---,0.00,VWS V14.01,2013-03-05 12:30:00,
2013-03-05 07:35:00,28.1,22.4,29.99,North,9,5.0,8.0,79,0.00,,---,0.00,VWS V14.01,2013-03-05 12:35:00,
2013-03-05 07:40:00,28.2,22.5,29.99,NNW,338,4.0,8.0,79,0.00,,---,0.00,VWS V14.01,2013-03-05 12:40:00,
2013-03-05 07:45:00,28.3,22.6,29.99,NNW,345,4.0,8.0,79,0.00,,---,0.00,VWS V14.01,2013-03-05 12:45:00,
2013-03-05 07:50:00,28.5,22.8,29.99,NW,325,2.0,8.0,79,0.00,,---,0.00,VWS V14.01,2013-03-05 12:50:00,
2013-03-05 07:55:00,28.7,23.0,29.99,North,5,6.0,9.0,79,0.00,,---,0.00,VWS V14.01,2013-03-05 12:55:00,
2013-03-05 08:00:00,28.7,22.7,29.99,NNE,14,5.0,6.0,78,0.00,,---,0.00,VWS V14.01,2013-03-05 13:00:00,
2013-03-05 08:06:00,28.8,22.8,29.99,NNE,16,2.0,8.0,78,0.00,,---,0.00,VWS V14.01,2013-03-05 13:06:00,
2013-03-05 08:11:00,28.9,22.9,30.00,NW,312,2.0,9.0,78,0.00,,---,0.00,VWS V14.01,2013-03-05 13:11:00,
2013-03-05 08:16:00,28.9,22.6,30.00,NNW,331,4.0,10.0,77,0.00,,---,0.00,VWS V14.01,2013-03-05 13:16:00,
2013-03-05 08:21:00,29.0,23.0,30.00,NNW,332,3.0,10.0,78,0.00,,---,0.00,VWS V14.01,2013-03-05 13:21:00,
2013-03-05 08:26:00,29.2,22.9,30.00,NW,323,3.0,10.0,77,0.00,,---,0.00,VWS V14.01,2013-03-05 13:26:00,
2013-03-05 08:30:00,30.8,23.5,30.01,North,10,6.0,9.0,74,0.00,,---,0.00,VWS V14.01,2013-03-05 13:30:00,
2013-03-05 08:31:00,29.4,23.1,30.00,NNE,17,6.0,6.0,77,0.00,,---,0.00,VWS V14.01,2013-03-05 13:31:00,
2013-03-05 08:36:00,29.4,22.8,30.00,NNW,336,6.0,6.0,76,0.00,,---,0.00,VWS V14.01,2013-03-05 13:36:00,
2013-03-05 08:41:00,29.5,22.9,30.00,NW,321,2.0,8.0,76,0.00,,---,0.00,VWS V14.01,2013-03-05 13:41:00,
2013-03-05 08:46:00,29.5,22.9,30.00,North,11,4.0,8.0,76,0.00,,---,0.00,VWS V14.01,2013-03-05 13:46:00,
2013-03-05 08:51:00,29.6,23.0,30.00,North,355,2.0,8.0,76,0.00,,---,0.00,VWS V14.01,2013-03-05 13:51:00,
2013-03-05 08:56:00,29.7,23.1,30.00,NNE,23,3.0,8.0,76,0.00,,---,0.00,VWS V14.01,2013-03-05 13:56:00,
2013-03-05 09:00:00,32.2,24.5,30.01,WNW,300,1.0,9.0,73,0.00,,---,0.00,VWS V14.01,2013-03-05 14:00:00,
2013-03-05 09:01:00,29.9,23.3,30.01,NW,319,1.0,3.0,76,0.00,,---,0.00,VWS V14.01,2013-03-05 14:01:00,
2013-03-05 09:06:00,30.1,23.1,30.01,NNW,342,3.0,7.0,75,0.00,,---,0.00,VWS V14.01,2013-03-05 14:06:00,
2013-03-05 09:11:00,30.0,23.0,30.01,WSW,254,2.0,7.0,75,0.00,,---,0.00,VWS V14.01,2013-03-05 14:11:00,
2013-03-05 09:17:00,30.2,23.2,30.01,NNE,19,3.0,7.0,75,0.00,,---,0.00,VWS V14.01,2013-03-05 14:17:00,
2013-03-05 09:22:00,30.4,23.4,30.01,North,5,2.0,7.0,75,0.00,,---,0.00,VWS V14.01,2013-03-05 14:22:00,
2013-03-05 09:27:00,30.8,23.8,30.02,North,355,3.0,7.0,75,0.00,,---,0.00,VWS V14.01,2013-03-05 14:27:00,
2013-03-05 09:30:00,33.4,25.0,30.00,NW,317,0.0,7.0,71,0.00,,---,0.00,VWS V14.01,2013-03-05 14:30:00,
2013-03-05 09:32:00,30.8,23.5,30.01,NW,313,0.0,6.0,74,0.00,,---,0.00,VWS V14.01,2013-03-05 14:32:00,
2013-03-05 09:37:00,31.0,23.4,30.01,North,351,3.0,7.0,73,0.00,,---,0.00,VWS V14.01,2013-03-05 14:37:00,
2013-03-05 09:42:00,31.1,23.8,30.01,NNW,335,0.0,9.0,74,0.00,,---,0.00,VWS V14.01,2013-03-05 14:42:00,
2013-03-05 09:47:00,31.4,24.1,30.01,NNE,21,1.0,9.0,74,0.00,,---,0.00,VWS V14.01,2013-03-05 14:47:00,
2013-03-05 09:52:00,31.9,24.2,30.01,NE,53,5.0,9.0,73,0.00,,---,0.00,VWS V14.01,2013-03-05 14:52:00,
2013-03-05 09:57:00,32.1,24.1,30.01,WNW,300,0.0,9.0,72,0.00,,---,0.00,VWS V14.01,2013-03-05 14:57:00,
2013-03-05 10:00:00,35.0,25.5,30.00,WNW,298,0.0,5.0,68,0.00,,---,0.00,VWS V14.01,2013-03-05 15:00:00,
2013-03-05 10:03:00,32.5,24.8,30.01,NNE,26,1.0,4.0,73,0.00,,---,0.00,VWS V14.01,2013-03-05 15:03:00,
2013-03-05 10:08:00,32.6,24.6,30.01,NNW,336,1.0,7.0,72,0.00,,---,0.00,VWS V14.01,2013-03-05 15:08:00,
2013-03-05 10:13:00,32.8,24.8,30.01,NNE,14,5.0,7.0,72,0.00,,---,0.00,VWS V14.01,2013-03-05 15:13:00,
2013-03-05 10:18:00,32.8,24.5,30.01,NE,43,2.0,7.0,71,0.00,,---,0.00,VWS V14.01,2013-03-05 15:18:00,
2013-03-05 10:23:00,33.0,25.0,30.00,NW,313,4.0,7.0,72,0.00,,---,0.00,VWS V14.01,2013-03-05 15:23:00,
2013-03-05 10:28:00,33.2,25.2,30.00,WNW,301,2.0,7.0,72,0.00,,---,0.00,VWS V14.01,2013-03-05 15:28:00,
2013-03-05 10:33:00,33.6,24.9,30.00,NW,315,1.0,4.0,70,0.00,,---,0.00,VWS V14.01,2013-03-05 15:33:00,
2013-03-05 10:38:00,33.8,25.1,30.00,NW,324,2.0,4.0,70,0.00,,---,0.00,VWS V14.01,2013-03-05 15:38:00,
2013-03-05 10:43:00,34.4,25.6,30.01,NE,42,0.0,4.0,70,0.00,,---,0.00,VWS V14.01,2013-03-05 15:43:00,
2013-03-05 10:48:00,34.8,25.7,30.00,NNE,15,5.0,5.0,69,0.00,,---,0.00,VWS V14.01,2013-03-05 15:48:00,
2013-03-05 10:54:00,35.1,25.6,30.00,NNE,14,1.0,5.0,68,0.00,,---,0.00,VWS V14.01,2013-03-05 15:54:00,
2013-03-05 10:59:00,35.0,25.5,30.00,WNW,301,0.0,5.0,68,0.00,,---,0.00,VWS V14.01,2013-03-05 15:59:00,
2013-03-05 11:04:00,35.1,25.6,30.00,West,280,2.0,4.0,68,0.00,,---,0.00,VWS V14.01,2013-03-05 16:04:00,
2013-03-05 11:09:00,35.6,26.1,30.00,NE,42,0.0,5.0,68,0.00,,---,0.00,VWS V14.01,2013-03-05 16:09:00,
2013-03-05 11:14:00,35.9,26.4,29.99,North,5,2.0,5.0,68,0.00,,---,0.00,VWS V14.01,2013-03-05 16:14:00,
2013-03-05 11:19:00,36.0,26.1,29.99,West,262,0.0,5.0,67,0.00,,---,0.00,VWS V14.01,2013-03-05 16:19:00,
2013-03-05 11:24:00,36.4,26.5,29.99,NW,309,0.0,5.0,67,0.00,,---,0.00,VWS V14.01,2013-03-05 16:24:00,
2013-03-05 11:29:00,36.5,26.2,29.99,NW,313,1.0,6.0,66,0.00,,---,0.00,VWS V14.01,2013-03-05 16:29:00,
2013-03-05 11:30:00,39.6,28.1,29.98,NW,311,0.0,5.0,63,0.00,,---,0.00,VWS V14.01,2013-03-05 16:30:00,
2013-03-05 11:34:00,36.4,26.5,29.99,North,360,1.0,4.0,67,0.00,,---,0.00,VWS V14.01,2013-03-05 16:34:00,
2013-03-05 11:39:00,36.9,26.6,29.99,NNE,21,0.0,4.0,66,0.00,,---,0.00,VWS V14.01,2013-03-05 16:39:00,
2013-03-05 11:45:00,36.8,26.5,29.99,NW,306,0.0,5.0,66,0.00,,---,0.00,VWS V14.01,2013-03-05 16:45:00,
2013-03-05 11:50:00,37.3,27.4,29.98,NNW,340,3.0,5.0,67,0.00,,---,0.00,VWS V14.01,2013-03-05 16:50:00,
2013-03-05 11:55:00,37.8,27.1,29.99,NW,320,2.0,6.0,65,0.00,,---,0.00,VWS V14.01,2013-03-05 16:55:00,
2013-03-05 12:00:00,38.0,27.3,29.98,North,360,0.0,6.0,65,0.00,,---,0.00,VWS V14.01,2013-03-05 17:00:00,
2013-03-05 12:05:00,38.2,27.5,29.99,NNW,333,0.0,4.0,65,0.00,,---,0.00,VWS V14.01,2013-03-05 17:05:00,
2013-03-05 12:10:00,38.6,27.9,29.98,NNE,13,0.0,4.0,65,0.00,,---,0.00,VWS V14.01,2013-03-05 17:10:00,
2013-03-05 12:15:00,38.9,28.1,29.98,West,276,0.0,4.0,65,0.00,,---,0.00,VWS V14.01,2013-03-05 17:15:00,
2013-03-05 12:20:00,39.6,28.1,29.98,East,81,0.0,4.0,63,0.00,,---,0.00,VWS V14.01,2013-03-05 17:20:00,
2013-03-05 12:25:00,39.7,27.8,29.98,SW,219,5.0,5.0,62,0.00,,---,0.00,VWS V14.01,2013-03-05 17:25:00,
2013-03-05 12:30:00,39.6,28.1,29.98,NW,311,1.0,5.0,63,0.00,,---,0.00,VWS V14.01,2013-03-05 17:30:00,
2013-03-05 12:35:00,39.6,28.1,29.98,North,360,3.0,3.0,63,0.00,,---,0.00,VWS V14.01,2013-03-05 17:35:00,
2013-03-05 12:40:00,39.5,27.6,29.97,NW,311,1.0,7.0,62,0.00,,---,0.00,VWS V14.01,2013-03-05 17:40:00,
2013-03-05 12:45:00,39.8,28.2,29.97,North,5,0.0,7.0,63,0.00,,---,0.00,VWS V14.01,2013-03-05 17:45:00,
2013-03-05 12:50:00,40.4,28.4,29.97,ESE,105,0.0,7.0,62,0.00,,---,0.00,VWS V14.01,2013-03-05 17:50:00,
2013-03-05 12:55:00,40.8,28.8,29.97,West,275,0.0,7.0,62,0.00,,---,0.00,VWS V14.01,2013-03-05 17:55:00,
2013-03-05 13:00:00,41.0,28.6,29.97,NNE,13,2.0,7.0,61,0.00,,---,0.00,VWS V14.01,2013-03-05 18:00:00,
2013-03-05 13:05:00,41.0,28.6,29.98,NNE,24,2.0,5.0,61,0.00,,---,0.00,VWS V14.01,2013-03-05 18:05:00,
2013-03-05 13:10:00,40.7,28.3,29.98,NNW,327,2.0,5.0,61,0.00,,---,0.00,VWS V14.01,2013-03-05 18:10:00,
2013-03-05 13:15:00,40.8,28.8,29.98,NNW,327,0.0,5.0,62,0.00,,---,0.00,VWS V14.01,2013-03-05 18:15:00,
2013-03-05 13:20:00,41.3,28.9,29.98,North,355,0.0,5.0,61,0.00,,---,0.00,VWS V14.01,2013-03-05 18:20:00,
2013-03-05 13:25:00,41.0,28.6,29.97,North,355,0.0,5.0,61,0.00,,---,0.00,VWS V14.01,2013-03-05 18:25:00,
2013-03-05 13:30:00,41.0,28.6,29.97,North,360,0.0,0.0,61,0.00,,---,0.00,VWS V14.01,2013-03-05 18:30:00,
2013-03-05 13:35:00,41.0,28.6,29.97,SW,215,0.0,2.0,61,0.00,,---,0.00,VWS V14.01,2013-03-05 18:35:00,
2013-03-05 13:40:00,41.0,28.2,29.97,SSW,208,0.0,2.0,60,0.00,,---,0.00,VWS V14.01,2013-03-05 18:40:00,
2013-03-05 13:46:00,41.6,29.2,29.97,NE,51,0.0,2.0,61,0.00,,---,0.00,VWS V14.01,2013-03-05 18:46:00,
2013-03-05 13:51:00,42.3,29.0,29.97,ENE,64,0.0,3.0,59,0.00,,---,0.00,VWS V14.01,2013-03-05 18:51:00,
2013-03-05 13:56:00,42.5,29.2,29.96,NW,325,1.0,3.0,59,0.00,,---,0.00,VWS V14.01,2013-03-05 18:56:00,
2013-03-05 14:00:00,43.5,29.3,29.95,WNW,292,0.0,4.0,57,0.00,,---,0.00,VWS V14.01,2013-03-05 19:00:00,
2013-03-05 14:01:00,42.6,28.9,29.97,NNE,21,0.0,1.0,58,0.00,,---,0.00,VWS V14.01,2013-03-05 19:01:00,
2013-03-05 14:06:00,42.5,29.2,29.96,East,89,1.0,2.0,59,0.00,,---,0.00,VWS V14.01,2013-03-05 19:06:00,
2013-03-05 14:11:00,42.5,29.2,29.97,NNE,28,0.0,2.0,59,0.00,,---,0.00,VWS V14.01,2013-03-05 19:11:00,
2013-03-05 14:16:00,42.7,29.0,29.96,NNW,337,1.0,3.0,58,0.00,,---,0.00,VWS V14.01,2013-03-05 19:16:00,
2013-03-05 14:21:00,42.4,28.7,29.96,NNW,336,1.0,3.0,58,0.00,,---,0.00,VWS V14.01,2013-03-05 19:21:00,
2013-03-05 14:26:00,42.7,29.0,29.96,SW,228,0.0,3.0,58,0.00,,---,0.00,VWS V14.01,2013-03-05 19:26:00,
2013-03-05 14:30:00,43.2,29.0,29.95,NNW,335,0.0,3.0,57,0.00,,---,0.00,VWS V14.01,2013-03-05 19:30:00,
2013-03-05 14:31:00,43.2,29.0,29.96,WSW,254,0.0,1.0,57,0.00,,---,0.00,VWS V14.01,2013-03-05 19:31:00,
2013-03-05 14:36:00,43.5,29.7,29.96,NE,36,0.0,2.0,58,0.00,,---,0.00,VWS V14.01,2013-03-05 19:36:00,
2013-03-05 14:41:00,43.8,30.0,29.96,NNW,338,0.0,2.0,58,0.00,,---,0.00,VWS V14.01,2013-03-05 19:41:00,
2013-03-05 14:46:00,43.8,29.6,29.95,North,355,0.0,2.0,57,0.00,,---,0.00,VWS V14.01,2013-03-05 19:46:00,
2013-03-05 14:51:00,43.5,29.7,29.95,North,355,0.0,2.0,58,0.00,,---,0.00,VWS V14.01,2013-03-05 19:51:00,
2013-03-05 14:56:00,43.7,29.9,29.96,North,355,3.0,3.0,58,0.00,,---,0.00,VWS V14.01,2013-03-05 19:56:00,
2013-03-05 15:01:00,43.4,29.2,29.96,North,5,1.0,3.0,57,0.00,,---,0.00,VWS V14.01,2013-03-05 20:01:00,
2013-03-05 15:07:00,43.3,29.1,29.96,North,355,0.0,3.0,57,0.00,,---,0.00,VWS V14.01,2013-03-05 20:07:00,
2013-03-05 15:12:00,43.3,29.1,29.96,NNW,338,0.0,3.0,57,0.00,,---,0.00,VWS V14.01,2013-03-05 20:12:00,
2013-03-05 15:17:00,43.3,29.1,29.96,NW,326,0.0,3.0,57,0.00,,---,0.00,VWS V14.01,2013-03-05 20:17:00,
2013-03-05 15:22:00,43.4,29.6,29.95,NW,326,0.0,3.0,58,0.00,,---,0.00,VWS V14.01,2013-03-05 20:22:00,
2013-03-05 15:27:00,43.4,29.2,29.95,NNE,13,2.0,3.0,57,0.00,,---,0.00,VWS V14.01,2013-03-05 20:27:00,
2013-03-05 15:30:00,43.5,29.3,29.94,ENE,74,0.0,3.0,57,0.00,,---,0.00,VWS V14.01,2013-03-05 20:30:00,
2013-03-05 15:32:00,43.1,28.9,29.95,NNW,335,1.0,1.0,57,0.00,,---,0.00,VWS V14.01,2013-03-05 20:32:00,
2013-03-05 15:37:00,43.1,29.3,29.95,NNW,335,0.0,2.0,58,0.00,,---,0.00,VWS V14.01,2013-03-05 20:37:00,
2013-03-05 15:42:00,43.7,29.9,29.95,North,355,0.0,2.0,58,0.00,,---,0.00,VWS V14.01,2013-03-05 20:42:00,
2013-03-05 15:47:00,43.9,29.7,29.95,North,355,0.0,2.0,57,0.00,,---,0.00,VWS V14.01,2013-03-05 20:47:00,
2013-03-05 15:52:00,44.1,29.9,29.95,North,355,0.0,2.0,57,0.00,,---,0.00,VWS V14.01,2013-03-05 20:52:00,
2013-03-05 15:58:00,44.4,29.7,29.94,North,355,0.0,2.0,56,0.00,,---,0.00,VWS V14.01,2013-03-05 20:58:00,
2013-03-05 16:00:00,42.2,28.9,29.94,NNE,28,0.0,3.0,59,0.00,,---,0.00,VWS V14.01,2013-03-05 21:00:00,
2013-03-05 16:03:00,44.6,29.9,29.94,North,355,1.0,1.0,56,0.00,,---,0.00,VWS V14.01,2013-03-05 21:03:00,
2013-03-05 16:08:00,44.4,29.7,29.94,NE,46,0.0,2.0,56,0.00,,---,0.00,VWS V14.01,2013-03-05 21:08:00,
2013-03-05 16:13:00,44.2,29.5,29.94,NE,39,0.0,3.0,56,0.00,,---,0.00,VWS V14.01,2013-03-05 21:13:00,
2013-03-05 16:18:00,44.0,29.3,29.94,NE,39,1.0,3.0,56,0.00,,---,0.00,VWS V14.01,2013-03-05 21:18:00,
2013-03-05 16:23:00,43.7,29.0,29.94,ENE,74,0.0,3.0,56,0.00,,---,0.00,VWS V14.01,2013-03-05 21:23:00,
2013-03-05 16:28:00,43.5,28.9,29.94,ENE,74,0.0,3.0,56,0.00,,---,0.00,VWS V14.01,2013-03-05 21:28:00,
2013-03-05 16:33:00,43.3,29.1,29.94,ENE,74,0.0,1.0,57,0.00,,---,0.00,VWS V14.01,2013-03-05 21:33:00,
2013-03-05 16:38:00,43.0,28.8,29.94,NNE,15,0.0,2.0,57,0.00,,---,0.00,VWS V14.01,2013-03-05 21:38:00,
2013-03-05 16:43:00,42.7,28.5,29.94,NE,44,2.0,2.0,57,0.00,,---,0.00,VWS V14.01,2013-03-05 21:43:00,
2013-03-05 16:48:00,42.4,28.7,29.94,NNE,21,2.0,3.0,58,0.00,,---,0.00,VWS V14.01,2013-03-05 21:48:00,
2013-03-05 16:53:00,42.2,28.5,29.94,North,9,1.0,3.0,58,0.00,,---,0.00,VWS V14.01,2013-03-05 21:53:00,
2013-03-05 16:58:00,42.2,28.5,29.94,NNE,28,0.0,3.0,58,0.00,,---,0.00,VWS V14.01,2013-03-05 21:58:00,
2013-03-05 17:00:00,40.6,27.8,29.96,NE,36,0.0,2.0,60,0.00,,---,0.00,VWS V14.01,2013-03-05 22:00:00,
2013-03-05 17:03:00,42.1,28.8,29.94,NNE,28,0.0,0.0,59,0.00,,---,0.00,VWS V14.01,2013-03-05 22:03:00,
2013-03-05 17:08:00,42.0,28.7,29.95,NNE,28,0.0,0.0,59,0.00,,---,0.00,VWS V14.01,2013-03-05 22:08:00,
2013-03-05 17:13:00,41.8,28.5,29.95,NNE,28,0.0,1.0,59,0.00,,---,0.00,VWS V14.01,2013-03-05 22:13:00,
2013-03-05 17:18:00,41.7,28.4,29.95,NNE,28,0.0,2.0,59,0.00,,---,0.00,VWS V14.01,2013-03-05 22:18:00,
2013-03-05 17:23:00,41.5,28.3,29.95,NNE,28,0.0,2.0,59,0.00,,---,0.00,VWS V14.01,2013-03-05 22:23:00,
2013-03-05 17:29:00,41.4,28.2,29.96,NNE,28,0.0,2.0,59,0.00,,---,0.00,VWS V14.01,2013-03-05 22:29:00,
2013-03-05 17:34:00,41.3,28.1,29.96,NNE,28,0.0,1.0,59,0.00,,---,0.00,VWS V14.01,2013-03-05 22:34:00,
2013-03-05 17:39:00,41.2,28.0,29.96,NE,36,0.0,2.0,59,0.00,,---,0.00,VWS V14.01,2013-03-05 22:39:00,
2013-03-05 17:44:00,41.2,28.0,29.96,NE,36,0.0,2.0,59,0.00,,---,0.00,VWS V14.01,2013-03-05 22:44:00,
2013-03-05 17:49:00,41.0,27.8,29.96,NE,36,0.0,2.0,59,0.00,,---,0.00,VWS V14.01,2013-03-05 22:49:00,
2013-03-05 17:54:00,40.8,28.0,29.96,NE,36,0.0,2.0,60,0.00,,---,0.00,VWS V14.01,2013-03-05 22:54:00,
2013-03-05 17:59:00,40.6,27.8,29.96,NE,36,0.0,2.0,60,0.00,,---,0.00,VWS V14.01,2013-03-05 22:59:00,
2013-03-05 18:00:00,38.8,27.3,29.98,NE,36,0.0,1.0,63,0.00,,---,0.00,VWS V14.01,2013-03-05 23:00:00,
2013-03-05 18:04:00,40.4,27.6,29.97,NE,36,0.0,1.0,60,0.00,,---,0.00,VWS V14.01,2013-03-05 23:04:00,
2013-03-05 18:09:00,40.2,27.4,29.97,NE,36,0.0,1.0,60,0.00,,---,0.00,VWS V14.01,2013-03-05 23:09:00,
2013-03-05 18:14:00,40.0,27.6,29.97,NE,36,0.0,1.0,61,0.00,,---,0.00,VWS V14.01,2013-03-05 23:14:00,
2013-03-05 18:19:00,39.8,27.5,29.97,NE,36,0.0,1.0,61,0.00,,---,0.00,VWS V14.01,2013-03-05 23:19:00,
2013-03-05 18:24:00,39.6,27.3,29.97,NE,36,0.0,1.0,61,0.00,,---,0.00,VWS V14.01,2013-03-05 23:24:00,
2013-03-05 18:29:00,39.5,27.6,29.97,NE,36,0.0,1.0,62,0.00,,---,0.00,VWS V14.01,2013-03-05 23:29:00,
2013-03-05 18:30:00,38.0,26.9,29.98,NE,36,0.0,1.0,64,0.00,,---,0.00,VWS V14.01,2013-03-05 23:30:00,
2013-03-05 18:35:00,39.3,27.4,29.98,NE,36,0.0,0.0,62,0.00,,---,0.00,VWS V14.01,2013-03-05 23:35:00,
2013-03-05 18:40:00,39.2,27.3,29.98,NE,36,0.0,0.0,62,0.00,,---,0.00,VWS V14.01,2013-03-05 23:40:00,
2013-03-05 18:45:00,39.0,27.5,29.99,NE,36,0.0,0.0,63,0.00,,---,0.00,VWS V14.01,2013-03-05 23:45:00,
2013-03-05 18:50:00,38.9,27.4,29.98,NE,36,0.0,1.0,63,0.00,,---,0.00,VWS V14.01,2013-03-05 23:50:00,
2013-03-05 18:55:00,38.8,27.3,29.98,NE,36,0.0,1.0,63,0.00,,---,0.00,VWS V14.01,2013-03-05 23:55:00,
2013-03-05 19:00:00,38.8,27.3,29.98,NE,36,0.0,1.0,63,0.00,,---,0.00,VWS V14.01,2013-03-06 00:00:00,
2013-03-05 19:05:00,38.7,27.2,29.98,NE,36,0.0,1.0,63,0.00,,---,0.00,VWS V14.01,2013-03-06 00:05:00,
2013-03-05 19:10:00,38.7,27.2,29.98,NE,36,0.0,1.0,63,0.00,,---,0.00,VWS V14.01,2013-03-06 00:10:00,
2013-03-05 19:15:00,38.6,27.1,29.98,NE,36,0.0,1.0,63,0.00,,---,0.00,VWS V14.01,2013-03-06 00:15:00,
2013-03-05 19:20:00,38.4,26.9,29.98,NE,36,0.0,1.0,63,0.00,,---,0.00,VWS V14.01,2013-03-06 00:20:00,
2013-03-05 19:25:00,38.2,27.1,29.98,NE,36,0.0,1.0,64,0.00,,---,0.00,VWS V14.01,2013-03-06 00:25:00,
2013-03-05 19:30:00,38.0,26.9,29.98,NE,36,0.0,1.0,64,0.00,,---,0.00,VWS V14.01,2013-03-06 00:30:00,
2013-03-05 19:35:00,37.9,26.8,29.98,NE,36,0.0,1.0,64,0.00,,---,0.00,VWS V14.01,2013-03-06 00:35:00,
2013-03-05 19:40:00,37.9,27.2,29.97,NE,46,0.0,1.0,65,0.00,,---,0.00,VWS V14.01,2013-03-06 00:40:00,
2013-03-05 19:45:00,37.8,27.1,29.98,NE,46,0.0,1.0,65,0.00,,---,0.00,VWS V14.01,2013-03-06 00:45:00,
2013-03-05 19:50:00,37.7,27.0,29.97,NE,46,0.0,1.0,65,0.00,,---,0.00,VWS V14.01,2013-03-06 00:50:00,
2013-03-05 19:55:00,37.6,26.9,29.97,NE,46,0.0,1.0,65,0.00,,---,0.00,VWS V14.01,2013-03-06 00:55:00,
2013-03-05 20:00:00,37.4,26.7,29.97,NE,46,0.0,1.0,65,0.00,,---,0.00,VWS V14.01,2013-03-06 01:00:00,
2013-03-05 20:05:00,37.2,26.9,29.97,NE,46,0.0,1.0,66,0.00,,---,0.00,VWS V14.01,2013-03-06 01:05:00,
2013-03-05 20:10:00,37.3,27.0,29.97,ENE,64,1.0,3.0,66,0.00,,---,0.00,VWS V14.01,2013-03-06 01:10:00,
2013-03-05 20:15:00,37.4,27.1,29.96,South,172,0.0,3.0,66,0.00,,---,0.00,VWS V14.01,2013-03-06 01:15:00,
2013-03-05 20:20:00,37.3,27.4,29.97,NE,37,3.0,3.0,67,0.00,,---,0.00,VWS V14.01,2013-03-06 01:20:00,
2013-03-05 20:25:00,37.3,27.4,29.96,ENE,67,1.0,3.0,67,0.00,,---,0.00,VWS V14.01,2013-03-06 01:25:00,
2013-03-05 20:30:00,37.3,27.4,29.97,East,79,0.0,0.0,67,0.00,,---,0.00,VWS V14.01,2013-03-06 01:30:00,
2013-03-05 20:35:00,37.2,27.3,29.97,SSW,213,0.0,2.0,67,0.00,,---,0.00,VWS V14.01,2013-03-06 01:35:00,
2013-03-05 20:40:00,37.0,27.4,29.97,SW,214,0.0,2.0,68,0.00,,---,0.00,VWS V14.01,2013-03-06 01:40:00,
2013-03-05 20:46:00,36.8,27.2,29.97,SW,214,0.0,2.0,68,0.00,,---,0.00,VWS V14.01,2013-03-06 01:46:00,
2013-03-05 20:51:00,36.6,27.4,29.97,SW,214,0.0,2.0,69,0.00,,---,0.00,VWS V14.01,2013-03-06 01:51:00,
2013-03-05 20:56:00,36.4,27.2,29.97,SW,214,0.0,2.0,69,0.00,,---,0.00,VWS V14.01,2013-03-06 01:56:00,
2013-03-05 21:00:00,35.4,27.6,29.97,SW,214,0.0,1.0,73,0.00,,---,0.00,VWS V14.01,2013-03-06 02:00:00,
2013-03-05 21:01:00,36.2,27.4,29.98,SW,214,0.0,0.0,70,0.00,,---,0.00,VWS V14.01,2013-03-06 02:01:00,
2013-03-05 21:06:00,36.2,27.4,29.98,SW,214,0.0,0.0,70,0.00,,---,0.00,VWS V14.01,2013-03-06 02:06:00,
2013-03-05 21:11:00,36.2,27.4,29.97,SW,214,0.0,0.0,70,0.00,,---,0.00,VWS V14.01,2013-03-06 02:11:00,
2013-03-05 21:16:00,36.1,27.3,29.97,SW,214,0.0,1.0,70,0.00,,---,0.00,VWS V14.01,2013-03-06 02:16:00,
2013-03-05 21:21:00,36.0,27.5,29.97,SW,214,0.0,1.0,71,0.00,,---,0.00,VWS V14.01,2013-03-06 02:21:00,
2013-03-05 21:26:00,35.9,27.4,29.97,SW,214,0.0,1.0,71,0.00,,---,0.00,VWS V14.01,2013-03-06 02:26:00,
2013-03-05 21:31:00,35.8,27.3,29.97,SW,214,0.0,0.0,71,0.00,,---,0.00,VWS V14.01,2013-03-06 02:31:00,
2013-03-05 21:36:00,35.8,27.7,29.97,SW,214,0.0,0.0,72,0.00,,---,0.00,VWS V14.01,2013-03-06 02:36:00,
2013-03-05 21:41:00,35.7,27.6,29.97,SW,214,0.0,0.0,72,0.00,,---,0.00,VWS V14.01,2013-03-06 02:41:00,
2013-03-05 21:46:00,35.6,27.5,29.96,SW,214,0.0,1.0,72,0.00,,---,0.00,VWS V14.01,2013-03-06 02:46:00,
2013-03-05 21:52:00,35.5,27.4,29.97,SW,214,0.0,1.0,72,0.00,,---,0.00,VWS V14.01,2013-03-06 02:52:00,
2013-03-05 21:57:00,35.5,27.7,29.97,SW,214,0.0,1.0,73,0.00,,---,0.00,VWS V14.01,2013-03-06 02:57:00,
2013-03-05 22:00:00,33.7,27.0,29.95,SW,214,0.0,0.0,76,0.00,,---,0.00,VWS V14.01,2013-03-06 03:00:00,
2013-03-05 22:02:00,35.4,27.6,29.96,SW,214,0.0,0.0,73,0.00,,---,0.00,VWS V14.01,2013-03-06 03:02:00,
2013-03-05 22:07:00,35.3,27.5,29.97,SW,214,0.0,0.0,73,0.00,,---,0.00,VWS V14.01,2013-03-06 03:07:00,
2013-03-05 22:12:00,35.0,27.2,29.96,SW,214,0.0,0.0,73,0.00,,---,0.00,VWS V14.01,2013-03-06 03:12:00,
2013-03-05 22:17:00,34.8,27.4,29.96,SW,214,0.0,1.0,74,0.00,,---,0.00,VWS V14.01,2013-03-06 03:17:00,
2013-03-05 22:22:00,34.6,27.2,29.96,SW,214,0.0,1.0,74,0.00,,---,0.00,VWS V14.01,2013-03-06 03:22:00,
2013-03-05 22:27:00,34.4,27.3,29.96,SW,214,0.0,1.0,75,0.00,,---,0.00,VWS V14.01,2013-03-06 03:27:00,
2013-03-05 22:30:00,33.7,27.6,29.94,SW,214,0.0,2.0,78,0.00,,---,0.00,VWS V14.01,2013-03-06 03:30:00,
2013-03-05 22:32:00,34.4,27.3,29.96,SW,214,0.0,0.0,75,0.00,,---,0.00,VWS V14.01,2013-03-06 03:32:00,
2013-03-05 22:37:00,34.4,27.3,29.96,SW,214,0.0,0.0,75,0.00,,---,0.00,VWS V14.01,2013-03-06 03:37:00,
2013-03-05 22:42:00,34.3,27.2,29.96,SW,214,0.0,0.0,75,0.00,,---,0.00,VWS V14.01,2013-03-06 03:42:00,
2013-03-05 22:47:00,34.1,27.3,29.96,SW,214,0.0,0.0,76,0.00,,---,0.00,VWS V14.01,2013-03-06 03:47:00,
2013-03-05 22:52:00,33.9,27.1,29.95,SW,214,0.0,0.0,76,0.00,,---,0.00,VWS V14.01,2013-03-06 03:52:00,
2013-03-05 22:57:00,33.7,27.0,29.95,SW,214,0.0,0.0,76,0.00,,---,0.00,VWS V14.01,2013-03-06 03:57:00,
2013-03-05 23:00:00,33.7,27.6,29.93,SSW,194,0.0,2.0,78,0.00,,---,0.00,VWS V14.01,2013-03-06 04:00:00,
2013-03-05 23:02:00,33.7,27.0,29.94,SW,214,0.0,0.0,76,0.00,,---,0.00,VWS V14.01,2013-03-06 04:02:00,
2013-03-05 23:07:00,33.7,27.3,29.95,SW,214,0.0,0.0,77,0.00,,---,0.00,VWS V14.01,2013-03-06 04:07:00,
2013-03-05 23:12:00,33.6,27.2,29.94,SW,214,0.0,0.0,77,0.00,,---,0.00,VWS V14.01,2013-03-06 04:12:00,
2013-03-05 23:17:00,33.5,27.1,29.94,SW,214,0.0,0.0,77,0.00,,---,0.00,VWS V14.01,2013-03-06 04:17:00,
2013-03-05 23:22:00,33.6,27.2,29.94,SW,214,0.0,0.0,77,0.00,,---,0.00,VWS V14.01,2013-03-06 04:22:00,
2013-03-05 23:27:00,33.7,27.3,29.94,SW,214,0.0,2.0,77,0.00,,---,0.00,VWS V14.01,2013-03-06 04:27:00,
2013-03-05 23:32:00,33.8,27.7,29.94,SW,214,0.0,1.0,78,0.00,,---,0.00,VWS V14.01,2013-03-06 04:32:00,
2013-03-05 23:37:00,33.9,27.5,29.94,NNE,32,0.0,1.0,77,0.00,,---,0.00,VWS V14.01,2013-03-06 04:37:00,
2013-03-05 23:42:00,33.9,27.5,29.93,NE,55,0.0,2.0,77,0.00,,---,0.00,VWS V14.01,2013-03-06 04:42:00,
2013-03-05 23:47:00,33.8,27.7,29.93,NE,55,0.0,2.0,78,0.00,,---,0.00,VWS V14.01,2013-03-06 04:47:00,
2013-03-05 23:52:00,33.8,27.7,29.93,NE,55,0.0,2.0,78,0.00,,---,0.00,VWS V14.01,2013-03-06 04:52:00,
2013-03-05 23:57:00,33.7,27.6,29.93,SSW,194,0.0,2.0,78,0.00,,---,0.00,VWS V14.01,2013-03-06 04:57:00,